sensor_id;sensor_type;location;lat;lon;timestamp;P1;durP1;ratioP1;P2;durP2;ratioP2
38899;SDS011;24660;43.238;26.576;2022-07-19T12:29:47;18.08;;;16.67;;
38899;SDS011;24660;43.238;26.576;2022-07-19T12:32:15;17.67;;;16.38;;
38899;SDS011;24660;43.238;26.576;2022-07-19T12:34:54;18.30;;;16.90;;
38899;SDS011;24660;43.238;26.576;2022-07-19T12:39:59;18.17;;;16.88;;
38899;SDS011;24660;43.238;26.576;2022-07-19T12:42:34;18.08;;;16.77;;
38899;SDS011;24660;43.238;26.576;2022-07-19T12:45:10;17.65;;;16.35;;
38899;SDS011;24660;43.238;26.576;2022-07-19T12:47:37;17.92;;;16.63;;
38899;SDS011;24660;43.238;26.576;2022-07-19T12:50:03;17.90;;;16.60;;
38899;SDS011;24660;43.238;26.576;2022-07-19T12:52:29;18.45;;;17.05;;
38899;SDS011;24660;43.238;26.576;2022-07-19T12:54:55;17.05;;;15.85;;
38899;SDS011;24660;43.238;26.576;2022-07-19T12:57:21;17.38;;;16.08;;
38899;SDS011;24660;43.238;26.576;2022-07-19T12:59:46;17.25;;;16.05;;
38899;SDS011;24660;43.238;26.576;2022-07-19T13:02:13;17.45;;;16.15;;
38899;SDS011;24660;43.238;26.576;2022-07-19T13:04:40;16.90;;;15.70;;
38899;SDS011;24660;43.238;26.576;2022-07-19T13:07:08;17.05;;;15.85;;
38899;SDS011;24660;43.238;26.576;2022-07-19T13:09:35;16.60;;;15.40;;
38899;SDS011;24660;43.238;26.576;2022-07-19T13:12:02;16.77;;;15.57;;
38899;SDS011;24660;43.238;26.576;2022-07-19T13:14:30;17.02;;;15.82;;
38899;SDS011;24660;43.238;26.576;2022-07-19T13:16:57;16.65;;;15.45;;
38899;SDS011;24660;43.238;26.576;2022-07-19T13:19:23;16.73;;;15.52;;
38899;SDS011;24660;43.238;26.576;2022-07-19T13:21:49;16.83;;;15.63;;
38899;SDS011;24660;43.238;26.576;2022-07-19T13:26:43;16.48;;;15.27;;
38899;SDS011;24660;43.238;26.576;2022-07-19T13:29:08;16.80;;;15.60;;
38899;SDS011;24660;43.238;26.576;2022-07-19T13:31:39;16.80;;;15.60;;
38899;SDS011;24660;43.238;26.576;2022-07-19T13:34:05;16.73;;;15.52;;
38899;SDS011;24660;43.238;26.576;2022-07-19T13:36:31;17.02;;;15.82;;
38899;SDS011;24660;43.238;26.576;2022-07-19T13:38:57;16.77;;;15.57;;
38899;SDS011;24660;43.238;26.576;2022-07-19T13:41:22;16.60;;;15.40;;
38899;SDS011;24660;43.238;26.576;2022-07-19T13:43:51;16.30;;;15.18;;
38899;SDS011;24660;43.238;26.576;2022-07-19T13:46:18;16.33;;;15.23;;
38899;SDS011;24660;43.238;26.576;2022-07-19T13:48:45;16.38;;;15.20;;
38899;SDS011;24660;43.238;26.576;2022-07-19T13:51:11;16.10;;;15.00;;
38899;SDS011;24660;43.238;26.576;2022-07-19T13:53:36;15.88;;;14.77;;
38899;SDS011;24660;43.238;26.576;2022-07-19T13:56:03;16.08;;;14.98;;
38899;SDS011;24660;43.238;26.576;2022-07-19T13:58:29;15.85;;;14.75;;
38899;SDS011;24660;43.238;26.576;2022-07-19T14:00:55;16.13;;;15.02;;
38899;SDS011;24660;43.238;26.576;2022-07-19T14:03:20;16.05;;;14.95;;
38899;SDS011;24660;43.238;26.576;2022-07-19T14:05:46;15.82;;;14.73;;
38899;SDS011;24660;43.238;26.576;2022-07-19T14:08:13;16.15;;;15.05;;
38899;SDS011;24660;43.238;26.576;2022-07-19T14:10:39;16.80;;;15.60;;
38899;SDS011;24660;43.238;26.576;2022-07-19T14:13:05;16.08;;;14.98;;
38899;SDS011;24660;43.238;26.576;2022-07-19T14:15:31;15.00;;;14.00;;
38899;SDS011;24660;43.238;26.576;2022-07-19T14:17:57;16.20;;;15.10;;
38899;SDS011;24660;43.238;26.576;2022-07-19T14:20:23;16.70;;;15.50;;
38899;SDS011;24660;43.238;26.576;2022-07-19T14:22:50;16.73;;;15.53;;
38899;SDS011;24660;43.238;26.576;2022-07-19T14:25:16;16.25;;;15.15;;
38899;SDS011;24660;43.238;26.576;2022-07-19T14:27:42;16.67;;;15.48;;
38899;SDS011;24660;43.238;26.576;2022-07-19T14:30:08;16.48;;;15.32;;
38899;SDS011;24660;43.238;26.576;2022-07-19T14:32:33;16.50;;;15.35;;
38899;SDS011;24660;43.238;26.576;2022-07-19T14:34:59;16.17;;;15.07;;
38899;SDS011;24660;43.238;26.576;2022-07-19T14:37:25;15.65;;;14.55;;
38899;SDS011;24660;43.238;26.576;2022-07-19T14:39:50;14.93;;;13.93;;
38899;SDS011;24660;43.238;26.576;2022-07-19T14:42:19;15.80;;;14.70;;
38899;SDS011;24660;43.238;26.576;2022-07-19T14:44:44;16.35;;;15.25;;
38899;SDS011;24660;43.238;26.576;2022-07-19T14:47:10;15.32;;;14.32;;
38899;SDS011;24660;43.238;26.576;2022-07-19T14:49:36;15.80;;;14.70;;
38899;SDS011;24660;43.238;26.576;2022-07-19T14:52:02;15.38;;;14.30;;
38899;SDS011;24660;43.238;26.576;2022-07-19T14:54:28;15.98;;;14.88;;
38899;SDS011;24660;43.238;26.576;2022-07-19T14:56:53;15.43;;;14.43;;
38899;SDS011;24660;43.238;26.576;2022-07-19T14:59:20;15.23;;;14.23;;
38899;SDS011;24660;43.238;26.576;2022-07-19T15:01:46;15.13;;;14.13;;
38899;SDS011;24660;43.238;26.576;2022-07-19T15:04:12;15.77;;;14.68;;
38899;SDS011;24660;43.238;26.576;2022-07-19T15:06:38;15.95;;;14.85;;
38899;SDS011;24660;43.238;26.576;2022-07-19T15:11:32;15.70;;;14.60;;
38899;SDS011;24660;43.238;26.576;2022-07-19T15:13:59;15.57;;;14.48;;
38899;SDS011;24660;43.238;26.576;2022-07-19T15:16:25;16.00;;;14.90;;
38899;SDS011;24660;43.238;26.576;2022-07-19T15:18:51;15.90;;;14.80;;
38899;SDS011;24660;43.238;26.576;2022-07-19T15:21:16;15.52;;;14.43;;
38899;SDS011;24660;43.238;26.576;2022-07-19T15:26:10;16.50;;;15.35;;
38899;SDS011;24660;43.238;26.576;2022-07-19T15:28:36;16.70;;;15.50;;
38899;SDS011;24660;43.238;26.576;2022-07-19T15:31:02;15.40;;;14.40;;
38899;SDS011;24660;43.238;26.576;2022-07-19T15:33:29;15.88;;;14.77;;
38899;SDS011;24660;43.238;26.576;2022-07-19T15:35:55;14.77;;;13.77;;
38899;SDS011;24660;43.238;26.576;2022-07-19T15:38:21;14.63;;;13.63;;
38899;SDS011;24660;43.238;26.576;2022-07-19T15:40:47;15.52;;;14.43;;
38899;SDS011;24660;43.238;26.576;2022-07-19T15:43:12;15.98;;;14.88;;
38899;SDS011;24660;43.238;26.576;2022-07-19T15:45:38;16.33;;;15.23;;
38899;SDS011;24660;43.238;26.576;2022-07-19T15:48:06;15.15;;;14.15;;
38899;SDS011;24660;43.238;26.576;2022-07-19T15:50:31;14.23;;;13.32;;
38899;SDS011;24660;43.238;26.576;2022-07-19T15:53:02;14.50;;;13.50;;
38899;SDS011;24660;43.238;26.576;2022-07-19T15:55:28;15.95;;;14.85;;
38899;SDS011;24660;43.238;26.576;2022-07-19T15:57:54;15.60;;;14.50;;
38899;SDS011;24660;43.238;26.576;2022-07-19T16:00:19;15.25;;;14.25;;
38899;SDS011;24660;43.238;26.576;2022-07-19T16:02:45;15.68;;;14.57;;
38899;SDS011;24660;43.238;26.576;2022-07-19T16:05:10;15.73;;;14.63;;
38899;SDS011;24660;43.238;26.576;2022-07-19T16:07:37;14.88;;;13.88;;
38899;SDS011;24660;43.238;26.576;2022-07-19T16:10:03;14.57;;;13.57;;
38899;SDS011;24660;43.238;26.576;2022-07-19T16:12:33;15.18;;;14.18;;
38899;SDS011;24660;43.238;26.576;2022-07-19T16:14:59;15.20;;;14.20;;
38899;SDS011;24660;43.238;26.576;2022-07-19T16:17:24;15.02;;;14.02;;
38899;SDS011;24660;43.238;26.576;2022-07-19T16:19:50;15.63;;;14.52;;
38899;SDS011;24660;43.238;26.576;2022-07-19T16:22:16;15.35;;;14.35;;
38899;SDS011;24660;43.238;26.576;2022-07-19T16:24:42;15.75;;;14.65;;
38899;SDS011;24660;43.238;26.576;2022-07-19T16:27:08;15.07;;;14.07;;
38899;SDS011;24660;43.238;26.576;2022-07-19T16:29:34;15.73;;;14.63;;
38899;SDS011;24660;43.238;26.576;2022-07-19T16:31:59;15.20;;;14.20;;
38899;SDS011;24660;43.238;26.576;2022-07-19T16:34:25;15.30;;;14.30;;
38899;SDS011;24660;43.238;26.576;2022-07-19T16:36:51;15.60;;;14.50;;
38899;SDS011;24660;43.238;26.576;2022-07-19T16:39:17;15.98;;;14.88;;
38899;SDS011;24660;43.238;26.576;2022-07-19T16:41:42;15.45;;;14.45;;
38899;SDS011;24660;43.238;26.576;2022-07-19T16:44:11;15.25;;;14.25;;
38899;SDS011;24660;43.238;26.576;2022-07-19T16:46:36;16.40;;;15.27;;
38899;SDS011;24660;43.238;26.576;2022-07-19T16:49:02;16.23;;;15.13;;
38899;SDS011;24660;43.238;26.576;2022-07-19T16:51:28;16.38;;;15.27;;
38899;SDS011;24660;43.238;26.576;2022-07-19T16:53:54;16.10;;;15.00;;
38899;SDS011;24660;43.238;26.576;2022-07-19T16:56:20;16.80;;;15.60;;
38899;SDS011;24660;43.238;26.576;2022-07-19T16:58:46;17.20;;;16.00;;
38899;SDS011;24660;43.238;26.576;2022-07-19T17:01:12;16.90;;;15.70;;
38899;SDS011;24660;43.238;26.576;2022-07-19T17:03:37;17.20;;;16.00;;
38899;SDS011;24660;43.238;26.576;2022-07-19T17:06:03;17.50;;;16.30;;
38899;SDS011;24660;43.238;26.576;2022-07-19T17:08:28;17.75;;;16.45;;
38899;SDS011;24660;43.238;26.576;2022-07-19T17:10:54;17.88;;;16.58;;
38899;SDS011;24660;43.238;26.576;2022-07-19T17:13:20;18.15;;;16.85;;
38899;SDS011;24660;43.238;26.576;2022-07-19T17:15:46;18.15;;;16.85;;
38899;SDS011;24660;43.238;26.576;2022-07-19T17:18:11;18.48;;;17.08;;
38899;SDS011;24660;43.238;26.576;2022-07-19T17:20:37;18.17;;;16.85;;
38899;SDS011;24660;43.238;26.576;2022-07-19T17:23:03;18.23;;;16.88;;
38899;SDS011;24660;43.238;26.576;2022-07-19T17:25:28;18.25;;;16.85;;
38899;SDS011;24660;43.238;26.576;2022-07-19T17:27:54;18.05;;;16.70;;
38899;SDS011;24660;43.238;26.576;2022-07-19T17:30:20;18.30;;;16.95;;
38899;SDS011;24660;43.238;26.576;2022-07-19T17:32:45;18.60;;;17.20;;
38899;SDS011;24660;43.238;26.576;2022-07-19T17:35:11;18.50;;;17.10;;
38899;SDS011;24660;43.238;26.576;2022-07-19T17:37:37;18.63;;;17.23;;
38899;SDS011;24660;43.238;26.576;2022-07-19T17:40:04;18.08;;;16.77;;
38899;SDS011;24660;43.238;26.576;2022-07-19T17:42:30;18.08;;;16.77;;
38899;SDS011;24660;43.238;26.576;2022-07-19T17:44:56;18.30;;;16.90;;
38899;SDS011;24660;43.238;26.576;2022-07-19T17:47:21;18.75;;;17.35;;
38899;SDS011;24660;43.238;26.576;2022-07-19T17:49:49;18.80;;;17.35;;
